Time;durP1;ratioP1;P1;durP2;ratioP2;P2;SDS_P1;SDS_P2;PMS_P1;PMS_P2;Temp;Humidity;BMP_temperature;BMP_pressure;BME280_temperature;BME280_humidity;BME280_pressure;Samples;Min_cycle;Max_cycle;Signal;HPM_P1;HPM_P2
2022/03/25 00:00:10;;;;;;;276.40;82.68;;;;;;;;;;4892303;29;20304;-83
2022/03/25 00:02:37;;;;;;;277.40;81.18;;;;;;;;;;4915076;29;20147;-84
2022/03/25 00:05:04;;;;;;;238.23;77.05;;;;;;;;;;4897965;29;20060;-84
2022/03/25 00:07:31;;;;;;;225.13;63.63;;;;;;;;;;4915505;29;20128;-84
2022/03/25 00:10:02;;;;;;;300.88;80.45;;;;;;;;;;4899636;29;20083;-85
2022/03/25 00:12:32;;;;;;;275.85;81.15;;;;;;;;;;4916624;29;20127;-84
2022/03/25 00:14:58;;;;;;;287.02;81.22;;;;;;;;;;4912523;29;20509;-84
2022/03/25 00:17:25;;;;;;;256.30;76.35;;;;;;;;;;4914283;29;20315;-84
2022/03/25 00:19:51;;;;;;;292.37;83.60;;;;;;;;;;4911837;29;20170;-83
2022/03/25 00:22:18;;;;;;;293.98;81.90;;;;;;;;;;4915633;29;20064;-84
2022/03/25 00:24:48;;;;;;;312.70;84.20;;;;;;;;;;4900310;29;20143;-84
2022/03/25 00:27:14;;;;;;;319.77;89.77;;;;;;;;;;4896818;29;20044;-84
2022/03/25 00:29:41;;;;;;;296.30;82.07;;;;;;;;;;4898469;29;20140;-84
2022/03/25 00:32:15;;;;;;;324.50;85.32;;;;;;;;;;4914472;29;20056;-84
2022/03/25 00:34:43;;;;;;;336.40;84.45;;;;;;;;;;4913852;29;20591;-82
2022/03/25 00:37:10;;;;;;;;;;;;;;;;;;4911976;29;20139;-83
2022/03/25 00:39:37;;;;;;;315.07;82.27;;;;;;;;;;4915885;29;20002;-82
2022/03/25 00:42:05;;;;;;;341.25;84.88;;;;;;;;;;4896529;29;20132;-84
2022/03/25 00:44:31;;;;;;;277.88;78.05;;;;;;;;;;4912975;29;20081;-82
2022/03/25 00:46:58;;;;;;;302.48;85.65;;;;;;;;;;4913731;29;20123;-84
2022/03/25 00:49:25;;;;;;;308.88;85.20;;;;;;;;;;4914378;29;20056;-83
2022/03/25 00:51:53;;;;;;;233.98;73.22;;;;;;;;;;4900601;29;20134;-83
2022/03/25 00:54:20;;;;;;;329.10;86.57;;;;;;;;;;4897652;29;20055;-83
2022/03/25 00:56:47;;;;;;;316.92;86.70;;;;;;;;;;4896616;29;20059;-84
2022/03/25 00:59:14;;;;;;;346.50;89.78;;;;;;;;;;4900520;29;20080;-83
2022/03/25 01:01:41;;;;;;;353.27;91.28;;;;;;;;;;4897282;29;20067;-83
2022/03/25 01:04:08;;;;;;;341.02;88.50;;;;;;;;;;4883464;29;20135;-83
2022/03/25 01:06:35;;;;;;;365.30;88.88;;;;;;;;;;4881237;29;20083;-84
2022/03/25 01:09:05;;;;;;;360.02;88.53;;;;;;;;;;4899558;29;20056;-84
2022/03/25 01:11:34;;;;;;;378.20;88.65;;;;;;;;;;4901223;29;20142;-83
2022/03/25 01:14:02;;;;;;;406.88;93.80;;;;;;;;;;4879383;29;20131;-83
2022/03/25 01:16:30;;;;;;;348.42;85.55;;;;;;;;;;4881575;29;20062;-84
2022/03/25 01:18:57;;;;;;;394.03;89.63;;;;;;;;;;4900601;29;20096;-83
2022/03/25 01:21:23;;;;;;;402.13;89.47;;;;;;;;;;4897750;29;20172;-84
2022/03/25 01:23:50;;;;;;;376.17;88.90;;;;;;;;;;4881859;29;20052;-83
2022/03/25 01:26:17;;;;;;;344.13;85.20;;;;;;;;;;4884488;29;20051;-83
2022/03/25 01:28:43;;;;;;;349.30;87.05;;;;;;;;;;4897382;29;20099;-84
2022/03/25 01:31:10;;;;;;;305.95;79.80;;;;;;;;;;4887858;29;20130;-83
2022/03/25 01:33:37;;;;;;;334.73;87.27;;;;;;;;;;4899626;29;20139;-82
2022/03/25 01:36:04;;;;;;;406.73;91.95;;;;;;;;;;4911934;28;20060;-83
2022/03/25 01:38:32;;;;;;;410.27;92.68;;;;;;;;;;4896268;29;20139;-82
2022/03/25 01:40:59;;;;;;;;;;;;;;;;;;4888109;29;20108;-84
2022/03/25 01:43:26;;;;;;;412.00;85.63;;;;;;;;;;4896405;29;19930;-83
2022/03/25 01:45:52;;;;;;;401.90;87.13;;;;;;;;;;4878728;29;20139;-84
2022/03/25 01:48:20;;;;;;;384.63;86.93;;;;;;;;;;4893770;29;20059;-83
2022/03/25 01:50:47;;;;;;;404.08;87.80;;;;;;;;;;4888509;29;20136;-84
2022/03/25 01:53:14;;;;;;;421.08;93.05;;;;;;;;;;4896252;29;20066;-83
2022/03/25 01:55:56;;;;;;;403.05;89.68;;;;;;;;;;4912422;29;20139;-84
2022/03/25 01:58:23;;;;;;;395.83;88.68;;;;;;;;;;4911613;29;20591;-83
2022/03/25 02:00:56;;;;;;;408.80;90.65;;;;;;;;;;4899591;29;20060;-83
2022/03/25 02:03:23;;;;;;;433.70;88.03;;;;;;;;;;4883481;29;20445;-83
2022/03/25 02:05:50;;;;;;;351.10;70.43;;;;;;;;;;4898825;29;20052;-83
2022/03/25 02:08:17;;;;;;;433.23;92.20;;;;;;;;;;4895556;29;20393;-83
2022/03/25 02:10:45;;;;;;;382.05;88.53;;;;;;;;;;4912658;29;20135;-82
2022/03/25 02:13:11;;;;;;;397.00;88.18;;;;;;;;;;4913699;29;20146;-83
2022/03/25 02:15:43;;;;;;;391.10;88.93;;;;;;;;;;4902036;29;20139;-83
2022/03/25 02:18:14;;;;;;;401.38;88.43;;;;;;;;;;4893090;29;20139;-83
2022/03/25 02:20:42;;;;;;;383.75;86.97;;;;;;;;;;4913117;29;20463;-81
2022/03/25 02:23:09;;;;;;;423.17;93.10;;;;;;;;;;4910402;29;20130;-84
2022/03/25 02:25:36;;;;;;;400.77;90.65;;;;;;;;;;4911135;29;20504;-83
2022/03/25 02:28:04;;;;;;;416.83;88.00;;;;;;;;;;4894187;29;20061;-84
2022/03/25 02:30:33;;;;;;;416.38;89.20;;;;;;;;;;4896585;29;20131;-84
2022/03/25 02:33:02;;;;;;;443.05;92.47;;;;;;;;;;4899431;29;20052;-83
2022/03/25 02:35:37;;;;;;;474.30;96.72;;;;;;;;;;4911856;29;20602;-83
2022/03/25 02:38:04;;;;;;;451.33;91.43;;;;;;;;;;4908056;29;20193;-83
2022/03/25 02:40:31;;;;;;;450.45;93.07;;;;;;;;;;4895665;29;20509;-82
2022/03/25 02:42:57;;;;;;;440.20;92.30;;;;;;;;;;4910990;29;20138;-83
2022/03/25 02:45:24;;;;;;;384.92;85.82;;;;;;;;;;4892991;29;20540;-83
2022/03/25 02:47:52;;;;;;;375.45;84.57;;;;;;;;;;4897027;29;20131;-84
2022/03/25 02:50:18;;;;;;;432.27;87.07;;;;;;;;;;4895915;29;20132;-83
2022/03/25 02:52:45;;;;;;;408.90;85.35;;;;;;;;;;4911010;29;20056;-83
2022/03/25 02:55:12;;;;;;;237.20;56.50;;;;;;;;;;4913204;29;20079;-84
2022/03/25 02:57:42;;;;;;;395.15;81.40;;;;;;;;;;4896560;29;20079;-83
2022/03/25 03:00:09;;;;;;;413.00;84.30;;;;;;;;;;4897038;29;20092;-84
2022/03/25 03:02:36;;;;;;;454.02;87.07;;;;;;;;;;4910525;29;20473;-83
2022/03/25 03:05:08;;;;;;;414.67;84.93;;;;;;;;;;4896840;29;20052;-84
2022/03/25 03:07:38;;;;;;;321.05;78.28;;;;;;;;;;4907689;29;20131;-83
2022/03/25 03:10:06;;;;;;;370.67;78.75;;;;;;;;;;4897428;29;20150;-83
2022/03/25 03:12:33;;;;;;;389.10;81.57;;;;;;;;;;4908708;29;20499;-84
2022/03/25 03:15:00;;;;;;;304.73;62.33;;;;;;;;;;4914197;29;20210;-84
2022/03/25 03:17:27;;;;;;;367.13;80.47;;;;;;;;;;4914272;29;20048;-84
2022/03/25 03:19:54;;;;;;;388.15;83.10;;;;;;;;;;4912399;29;20047;-84
2022/03/25 03:22:20;;;;;;;395.50;80.97;;;;;;;;;;4910359;29;20155;-83
2022/03/25 03:24:54;;;;;;;328.92;76.28;;;;;;;;;;4895991;29;20151;-84
2022/03/25 03:27:20;;;;;;;363.25;79.22;;;;;;;;;;4895296;29;20079;-84
2022/03/25 03:29:46;;;;;;;452.90;88.90;;;;;;;;;;4913079;29;20088;-83
2022/03/25 03:32:13;;;;;;;215.20;52.90;;;;;;;;;;4910195;29;20564;-84
2022/03/25 03:34:39;;;;;;;420.67;85.00;;;;;;;;;;4911995;29;20087;-84
2022/03/25 03:37:06;;;;;;;306.88;75.05;;;;;;;;;;4897188;29;20187;-84
2022/03/25 03:39:33;;;;;;;378.52;84.40;;;;;;;;;;4893935;29;20132;-84
2022/03/25 03:41:59;;;;;;;226.50;56.57;;;;;;;;;;4912186;29;20076;-84
2022/03/25 03:44:26;;;;;;;404.80;82.50;;;;;;;;;;4895568;29;20075;-84
2022/03/25 03:46:59;;;;;;;412.73;85.95;;;;;;;;;;4892808;29;20139;-84
2022/03/25 03:49:25;;;;;;;411.40;86.25;;;;;;;;;;4913528;29;20135;-84
2022/03/25 03:51:52;;;;;;;432.15;90.75;;;;;;;;;;4896540;29;20079;-84
2022/03/25 03:54:20;;;;;;;437.83;88.53;;;;;;;;;;4899412;29;20084;-84
2022/03/25 03:56:47;;;;;;;436.17;86.43;;;;;;;;;;4913123;29;20127;-84
2022/03/25 03:59:13;;;;;;;475.90;88.22;;;;;;;;;;4899692;29;20131;-84
2022/03/25 04:01:48;;;;;;;295.73;69.22;;;;;;;;;;4910488;29;20060;-84
2022/03/25 04:04:14;;;;;;;;;;;;;;;;;;4915857;29;20076;-84
2022/03/25 04:06:41;;;;;;;341.13;74.78;;;;;;;;;;4915951;29;20367;-83
2022/03/25 04:09:10;;;;;;;379.95;80.35;;;;;;;;;;4898981;29;20135;-84
2022/03/25 04:11:36;;;;;;;407.52;84.00;;;;;;;;;;4915117;29;20056;-83
2022/03/25 04:14:02;;;;;;;448.10;86.95;;;;;;;;;;4897788;29;20139;-84
2022/03/25 04:16:35;;;;;;;454.92;88.65;;;;;;;;;;4915810;29;20071;-84
2022/03/25 04:19:02;;;;;;;459.25;86.47;;;;;;;;;;4893645;29;20530;-84
2022/03/25 04:21:28;;;;;;;393.45;82.15;;;;;;;;;;4913803;29;20106;-84
2022/03/25 04:24:02;;;;;;;471.20;90.63;;;;;;;;;;4914018;29;20082;-83
2022/03/25 04:26:28;;;;;;;457.38;89.20;;;;;;;;;;4895077;29;20587;-83
2022/03/25 04:28:54;;;;;;;361.90;82.38;;;;;;;;;;4897656;29;20072;-83
2022/03/25 04:31:23;;;;;;;465.58;90.10;;;;;;;;;;4912693;29;20138;-84
2022/03/25 04:33:49;;;;;;;436.90;87.57;;;;;;;;;;4897789;29;20044;-84
2022/03/25 04:36:16;;;;;;;441.07;86.07;;;;;;;;;;4895443;29;20134;-83
2022/03/25 04:38:43;;;;;;;469.17;89.05;;;;;;;;;;4901499;29;20127;-84
2022/03/25 04:41:10;;;;;;;503.50;91.70;;;;;;;;;;4895844;29;20131;-83
2022/03/25 04:43:37;;;;;;;484.60;89.03;;;;;;;;;;4913970;29;20137;-84
2022/03/25 04:46:04;;;;;;;493.98;89.47;;;;;;;;;;4896924;29;20162;-83
2022/03/25 04:48:31;;;;;;;432.48;87.82;;;;;;;;;;4915135;29;20063;-84
2022/03/25 04:50:58;;;;;;;464.40;89.28;;;;;;;;;;4911429;29;20505;-84
2022/03/25 04:53:26;;;;;;;455.63;92.03;;;;;;;;;;4896765;29;20072;-83
2022/03/25 04:55:53;;;;;;;294.08;72.93;;;;;;;;;;4897390;29;20150;-84
2022/03/25 04:58:23;;;;;;;357.48;80.20;;;;;;;;;;4914367;29;20139;-85
2022/03/25 05:00:50;;;;;;;334.90;75.47;;;;;;;;;;4898025;29;20068;-84
2022/03/25 05:03:17;;;;;;;387.88;83.18;;;;;;;;;;4913180;29;20596;-84
2022/03/25 05:05:44;;;;;;;391.85;81.25;;;;;;;;;;4897915;29;20516;-84
2022/03/25 05:08:11;;;;;;;422.53;86.70;;;;;;;;;;4914802;29;20143;-85
2022/03/25 05:10:38;;;;;;;386.25;85.22;;;;;;;;;;4912541;29;20084;-84
2022/03/25 05:13:26;;;;;;;467.67;91.47;;;;;;;;;;4912539;29;20531;-84
2022/03/25 05:15:53;;;;;;;488.85;95.40;;;;;;;;;;4894925;29;20087;-84
2022/03/25 05:18:19;;;;;;;374.53;74.83;;;;;;;;;;4910336;29;20060;-84
2022/03/25 05:20:46;;;;;;;477.90;96.35;;;;;;;;;;4913608;29;20304;-84
2022/03/25 05:23:12;;;;;;;510.65;98.50;;;;;;;;;;4914461;29;20504;-85
2022/03/25 05:25:41;;;;;;;497.40;98.30;;;;;;;;;;4895198;29;20139;-84
2022/03/25 05:28:08;;;;;;;510.37;98.23;;;;;;;;;;4910311;29;20419;-85
2022/03/25 05:30:35;;;;;;;533.35;98.00;;;;;;;;;;4914423;29;20100;-85
2022/03/25 05:33:02;;;;;;;332.92;70.35;;;;;;;;;;4899572;29;20143;-85
2022/03/25 05:35:29;;;;;;;478.45;97.32;;;;;;;;;;4893347;29;20060;-85
2022/03/25 05:37:57;;;;;;;485.05;102.35;;;;;;;;;;4912862;29;20497;-84
2022/03/25 05:40:25;;;;;;;460.67;97.10;;;;;;;;;;4882939;29;20517;-85
2022/03/25 05:42:51;;;;;;;459.30;99.97;;;;;;;;;;4898331;29;20080;-85
2022/03/25 05:45:19;;;;;;;505.92;102.95;;;;;;;;;;4914969;29;20134;-85
2022/03/25 05:47:45;;;;;;;;;;;;;;;;;;4911489;29;20154;-84
2022/03/25 05:50:12;;;;;;;472.33;97.97;;;;;;;;;;4894817;29;19977;-84
2022/03/25 05:52:39;;;;;;;493.85;101.80;;;;;;;;;;4895742;29;20527;-85
2022/03/25 05:55:05;;;;;;;490.27;104.32;;;;;;;;;;4894688;29;20132;-85
2022/03/25 05:57:32;;;;;;;471.58;107.10;;;;;;;;;;4895296;29;20127;-85
2022/03/25 05:59:59;;;;;;;516.67;109.18;;;;;;;;;;4910403;29;20568;-85
2022/03/25 06:02:27;;;;;;;468.30;104.40;;;;;;;;;;4912713;29;20059;-84
2022/03/25 06:04:55;;;;;;;529.78;112.03;;;;;;;;;;4894697;29;20501;-84
2022/03/25 06:07:22;;;;;;;505.33;109.57;;;;;;;;;;4893152;29;20500;-84
2022/03/25 06:09:56;;;;;;;466.83;109.75;;;;;;;;;;4897804;29;20135;-85
2022/03/25 06:12:22;;;;;;;482.90;111.22;;;;;;;;;;4908300;29;20083;-85
2022/03/25 06:14:49;;;;;;;450.85;109.63;;;;;;;;;;4902024;29;20048;-84
2022/03/25 06:17:15;;;;;;;483.45;113.10;;;;;;;;;;4897173;29;20512;-85
2022/03/25 06:19:42;;;;;;;476.95;109.68;;;;;;;;;;4913471;29;20139;-85
2022/03/25 06:22:08;;;;;;;451.13;111.90;;;;;;;;;;4895574;29;20083;-84
2022/03/25 06:24:45;;;;;;;481.45;113.95;;;;;;;;;;4891714;29;20060;-84
2022/03/25 06:27:12;;;;;;;495.73;115.03;;;;;;;;;;4899223;29;20094;-85
2022/03/25 06:29:38;;;;;;;478.85;110.35;;;;;;;;;;4896613;29;20139;-85
2022/03/25 06:32:12;;;;;;;467.23;115.88;;;;;;;;;;4912528;29;20058;-84
2022/03/25 06:34:38;;;;;;;463.45;116.68;;;;;;;;;;4910788;29;20591;-85
2022/03/25 06:37:05;;;;;;;463.48;118.80;;;;;;;;;;4892252;29;20079;-85
2022/03/25 06:39:32;;;;;;;;;;;;;;;;;;4911547;29;20087;-85
2022/03/25 06:41:59;;;;;;;464.77;113.13;;;;;;;;;;4914246;29;20014;-85
2022/03/25 06:44:25;;;;;;;442.45;111.05;;;;;;;;;;4899720;29;20467;-84
2022/03/25 06:46:58;;;;;;;465.05;120.00;;;;;;;;;;4897338;29;20088;-85
2022/03/25 06:49:25;;;;;;;433.40;115.18;;;;;;;;;;4898100;29;20064;-84
2022/03/25 06:51:52;;;;;;;431.92;117.70;;;;;;;;;;4913734;29;20063;-85
2022/03/25 06:54:25;;;;;;;445.75;118.15;;;;;;;;;;4909427;29;20083;-85
2022/03/25 06:56:51;;;;;;;413.00;111.23;;;;;;;;;;4897964;29;20060;-85
2022/03/25 06:59:20;;;;;;;415.83;110.75;;;;;;;;;;4897340;29;20139;-85
2022/03/25 07:01:54;;;;;;;417.00;112.72;;;;;;;;;;4913852;29;20080;-84
2022/03/25 07:04:21;;;;;;;434.30;118.93;;;;;;;;;;4896123;29;20072;-85
2022/03/25 07:06:48;;;;;;;441.05;118.78;;;;;;;;;;4898866;29;20148;-84
2022/03/25 07:09:22;;;;;;;429.08;118.32;;;;;;;;;;4911280;29;20112;-85
2022/03/25 07:11:48;;;;;;;434.65;119.10;;;;;;;;;;4896550;29;20167;-84
2022/03/25 07:14:15;;;;;;;423.60;114.57;;;;;;;;;;4896850;29;20080;-85
2022/03/25 07:16:48;;;;;;;408.83;113.35;;;;;;;;;;4912178;29;20048;-85
2022/03/25 07:19:14;;;;;;;379.73;113.93;;;;;;;;;;4896832;29;20095;-85
2022/03/25 07:21:41;;;;;;;379.48;109.82;;;;;;;;;;4914906;29;20131;-84
2022/03/25 07:24:14;;;;;;;403.80;113.00;;;;;;;;;;4897106;29;20076;-85
2022/03/25 07:26:40;;;;;;;406.05;115.05;;;;;;;;;;4918791;29;20397;-86
2022/03/25 07:29:07;;;;;;;371.48;110.63;;;;;;;;;;4900650;29;20083;-85
2022/03/25 07:31:34;;;;;;;372.58;111.38;;;;;;;;;;4917959;29;20562;-84
2022/03/25 07:34:02;;;;;;;292.50;85.90;;;;;;;;;;4918949;29;20056;-85
2022/03/25 07:36:29;;;;;;;352.02;109.25;;;;;;;;;;4913995;29;20056;-85
2022/03/25 07:38:55;;;;;;;324.65;106.65;;;;;;;;;;4918708;29;20205;-85
2022/03/25 07:41:22;;;;;;;332.92;107.10;;;;;;;;;;4900918;29;20127;-85
2022/03/25 07:43:49;;;;;;;332.80;105.88;;;;;;;;;;4901649;29;20508;-85
2022/03/25 07:46:16;;;;;;;294.85;102.25;;;;;;;;;;4913456;29;20464;-84
2022/03/25 07:48:42;;;;;;;249.93;88.38;;;;;;;;;;4900049;29;20454;-85
2022/03/25 07:51:16;;;;;;;237.98;89.10;;;;;;;;;;4906190;29;20102;-85
2022/03/25 07:53:43;;;;;;;224.00;87.85;;;;;;;;;;4915085;29;20111;-86
2022/03/25 07:56:11;;;;;;;228.32;86.38;;;;;;;;;;4894553;29;20237;-84
2022/03/25 07:58:44;;;;;;;191.15;80.60;;;;;;;;;;4893356;29;20052;-85
2022/03/25 08:01:10;;;;;;;176.60;76.87;;;;;;;;;;4899867;29;20094;-85
2022/03/25 08:03:37;;;;;;;162.05;74.82;;;;;;;;;;4896506;29;20489;-85
2022/03/25 08:06:04;;;;;;;167.63;73.50;;;;;;;;;;4901064;29;20055;-86
2022/03/25 08:08:30;;;;;;;148.30;69.13;;;;;;;;;;4915698;29;20139;-85
2022/03/25 08:10:58;;;;;;;143.50;64.97;;;;;;;;;;4916443;29;20052;-86
2022/03/25 08:13:25;;;;;;;140.07;64.45;;;;;;;;;;4901454;29;20088;-86
2022/03/25 08:15:52;;;;;;;134.57;62.83;;;;;;;;;;4916875;29;20083;-85
2022/03/25 08:18:18;;;;;;;141.60;65.27;;;;;;;;;;4899079;29;20060;-86
2022/03/25 08:20:53;;;;;;;134.43;64.75;;;;;;;;;;4915543;29;20300;-84
2022/03/25 08:29:01;;;;;;;121.78;59.00;;;;;;;;;;4915166;29;20435;-85
2022/03/25 08:31:42;;;;;;;122.97;60.53;;;;;;;;;;4897907;29;20059;-85
2022/03/25 08:34:14;;;;;;;116.65;58.90;;;;;;;;;;4916101;29;20088;-86
2022/03/25 08:36:48;;;;;;;112.35;54.25;;;;;;;;;;4893762;29;20139;-84
2022/03/25 08:39:14;;;;;;;;;;;;;;;;;;4899415;29;20083;-84
2022/03/25 08:41:41;;;;;;;112.18;53.80;;;;;;;;;;4895132;29;19967;-84
2022/03/25 08:44:09;;;;;;;97.55;50.40;;;;;;;;;;4894300;29;20144;-83
2022/03/25 08:46:36;;;;;;;101.68;51.30;;;;;;;;;;4914691;29;20134;-84
2022/03/25 08:49:10;;;;;;;92.60;47.95;;;;;;;;;;4900377;29;20064;-84
2022/03/25 08:51:36;;;;;;;100.88;50.80;;;;;;;;;;4914869;29;20052;-85
2022/03/25 08:54:04;;;;;;;97.63;47.50;;;;;;;;;;4916835;29;20432;-84
2022/03/25 08:56:30;;;;;;;86.03;43.78;;;;;;;;;;4900007;29;20075;-85
2022/03/25 08:58:58;;;;;;;95.40;45.92;;;;;;;;;;4896109;29;20155;-85
2022/03/25 09:01:25;;;;;;;84.35;42.95;;;;;;;;;;4897547;29;20063;-84
2022/03/25 09:03:52;;;;;;;77.43;39.33;;;;;;;;;;4899098;29;20047;-84
2022/03/25 09:06:23;;;;;;;83.22;43.40;;;;;;;;;;4914600;29;20078;-85
2022/03/25 09:08:50;;;;;;;79.63;41.70;;;;;;;;;;4894781;29;20139;-84
2022/03/25 09:11:16;;;;;;;66.63;37.43;;;;;;;;;;4895893;29;20067;-84
2022/03/25 09:13:44;;;;;;;75.20;38.47;;;;;;;;;;4912300;29;20108;-84
2022/03/25 09:16:13;;;;;;;76.75;39.65;;;;;;;;;;4899036;29;20131;-84
2022/03/25 09:18:40;;;;;;;82.30;40.05;;;;;;;;;;4898282;29;20088;-83
2022/03/25 09:21:13;;;;;;;73.95;37.65;;;;;;;;;;4898539;29;20084;-85
2022/03/25 09:23:39;;;;;;;76.15;36.53;;;;;;;;;;4895689;29;20444;-84
2022/03/25 09:26:06;;;;;;;66.18;34.75;;;;;;;;;;4915091;29;20052;-85
2022/03/25 09:28:40;;;;;;;59.40;31.88;;;;;;;;;;4912305;29;20473;-84
2022/03/25 09:31:07;;;;;;;60.97;33.03;;;;;;;;;;4897142;29;20087;-84
2022/03/25 09:33:34;;;;;;;55.65;30.55;;;;;;;;;;4898855;29;20052;-84
2022/03/25 09:36:07;;;;;;;64.85;32.90;;;;;;;;;;4899958;29;20604;-84
2022/03/25 09:38:33;;;;;;;52.08;31.60;;;;;;;;;;4911286;29;20079;-85
2022/03/25 09:41:04;;;;;;;57.92;30.27;;;;;;;;;;4897300;29;20131;-84
2022/03/25 09:43:31;;;;;;;49.10;28.42;;;;;;;;;;4914360;29;20839;-85
2022/03/25 09:45:57;;;;;;;52.13;28.80;;;;;;;;;;4896880;29;20131;-83
2022/03/25 09:48:23;;;;;;;56.35;27.33;;;;;;;;;;4901539;29;20044;-85
2022/03/25 09:50:50;;;;;;;50.55;28.13;;;;;;;;;;4915179;29;20048;-84
2022/03/25 09:53:37;;;;;;;48.30;27.25;;;;;;;;;;4902185;29;20529;-84
2022/03/25 09:56:10;;;;;;;49.60;27.80;;;;;;;;;;4914456;29;20087;-85
2022/03/25 09:58:36;;;;;;;44.03;27.05;;;;;;;;;;4910937;29;20056;-85
2022/03/25 10:01:03;;;;;;;55.15;27.00;;;;;;;;;;4914844;29;20507;-85
2022/03/25 10:03:36;;;;;;;44.07;22.73;;;;;;;;;;4903624;29;20142;-84
2022/03/25 10:06:09;;;;;;;45.17;24.65;;;;;;;;;;4911527;29;20304;-85
2022/03/25 10:08:43;;;;;;;46.25;24.08;;;;;;;;;;4896932;29;20077;-84
2022/03/25 10:11:19;;;;;;;44.10;22.77;;;;;;;;;;4914518;29;20451;-85
2022/03/25 10:14:15;;;;;;;43.45;23.50;;;;;;;;;;4896989;29;20131;-85
2022/03/25 10:16:43;;;;;;;46.08;23.05;;;;;;;;;;4912442;29;20064;-84
2022/03/25 10:19:09;;;;;;;41.03;21.45;;;;;;;;;;4898098;29;20105;-85
2022/03/25 10:21:52;;;;;;;41.80;21.95;;;;;;;;;;4913899;29;20080;-84
2022/03/25 10:24:47;;;;;;;45.25;21.67;;;;;;;;;;4898624;29;20056;-85
2022/03/25 10:27:17;;;;;;;40.47;20.17;;;;;;;;;;4912857;29;20075;-85
2022/03/25 10:29:47;;;;;;;38.33;19.67;;;;;;;;;;4912216;29;20103;-85
2022/03/25 10:32:15;;;;;;;34.70;18.08;;;;;;;;;;4913160;29;20119;-85
2022/03/25 10:34:42;;;;;;;35.78;18.30;;;;;;;;;;4906931;29;20128;-85
2022/03/25 10:37:16;;;;;;;37.65;17.65;;;;;;;;;;4893444;29;20146;-86
2022/03/25 10:39:52;;;;;;;27.88;16.45;;;;;;;;;;4910727;29;20048;-84
2022/03/25 10:42:19;;;;;;;32.60;15.55;;;;;;;;;;4912819;29;20577;-85
2022/03/25 10:44:46;;;;;;;30.58;15.98;;;;;;;;;;4891950;29;20131;-85
2022/03/25 10:47:15;;;;;;;28.73;16.07;;;;;;;;;;4913085;29;20138;-85
2022/03/25 10:49:46;;;;;;;29.02;15.95;;;;;;;;;;4893709;29;20560;-85
2022/03/25 10:52:23;;;;;;;28.67;15.30;;;;;;;;;;4897103;29;20056;-85
2022/03/25 10:55:17;;;;;;;28.40;14.05;;;;;;;;;;4896855;29;20059;-85
2022/03/25 10:57:50;;;;;;;29.08;14.13;;;;;;;;;;4913158;29;20083;-85
2022/03/25 11:00:24;;;;;;;26.08;13.02;;;;;;;;;;4918289;29;20130;-84
2022/03/25 11:02:52;;;;;;;26.40;12.65;;;;;;;;;;4916238;29;20052;-85
2022/03/25 11:05:18;;;;;;;;;;;;;;;;;;4898554;29;20527;-85
2022/03/25 11:07:46;;;;;;;21.30;10.65;;;;;;;;;;4914546;29;19952;-84
2022/03/25 11:10:13;;;;;;;;;;;;;;;;;;4900320;29;20151;-84
2022/03/25 11:12:58;;;;;;;20.85;10.52;;;;;;;;;;4896859;29;19926;-85
2022/03/25 11:15:25;;;;;;;20.70;10.23;;;;;;;;;;4914143;29;20092;-85
2022/03/25 11:17:51;;;;;;;16.63;9.43;;;;;;;;;;4914213;29;20052;-85
2022/03/25 11:20:20;;;;;;;25.33;9.88;;;;;;;;;;4914125;29;20159;-85
2022/03/25 11:22:57;;;;;;;19.08;8.55;;;;;;;;;;4916234;29;20056;-84
2022/03/25 11:25:24;;;;;;;16.38;8.85;;;;;;;;;;4902456;29;20095;-85
2022/03/25 11:27:53;;;;;;;19.42;8.20;;;;;;;;;;4899863;29;20485;-85
2022/03/25 11:30:20;;;;;;;16.73;7.95;;;;;;;;;;4917328;29;20142;-85
2022/03/25 11:32:48;;;;;;;21.80;8.77;;;;;;;;;;4915184;29;20080;-85
2022/03/25 11:35:21;;;;;;;21.65;8.82;;;;;;;;;;4896306;29;20091;-86
2022/03/25 11:38:08;;;;;;;20.48;8.35;;;;;;;;;;4914771;29;20519;-84
2022/03/25 11:40:39;;;;;;;21.10;8.35;;;;;;;;;;4914729;29;20079;-85
2022/03/25 11:43:16;;;;;;;15.90;7.40;;;;;;;;;;4897312;29;20084;-85
2022/03/25 11:45:44;;;;;;;17.37;8.07;;;;;;;;;;4915143;29;20076;-86
2022/03/25 11:48:11;;;;;;;;;;;;;;;;;;4901763;29;20445;-85
2022/03/25 11:50:37;;;;;;;16.83;7.43;;;;;;;;;;4911920;29;19961;-85
2022/03/25 11:53:11;;;;;;;19.27;7.72;;;;;;;;;;4892020;29;20075;-84
2022/03/25 11:55:56;;;;;;;22.13;7.20;;;;;;;;;;4900824;29;20131;-85
2022/03/25 11:58:23;;;;;;;18.40;7.47;;;;;;;;;;4912945;29;20135;-85
2022/03/25 12:01:15;;;;;;;17.80;6.72;;;;;;;;;;4904079;29;20056;-85
2022/03/25 12:03:53;;;;;;;14.38;6.82;;;;;;;;;;4899214;29;20052;-86
2022/03/25 12:06:21;;;;;;;11.85;6.10;;;;;;;;;;4910366;29;20418;-84
2022/03/25 12:09:07;;;;;;;11.93;5.18;;;;;;;;;;4894220;29;20076;-85
2022/03/25 12:11:48;;;;;;;13.07;5.50;;;;;;;;;;4916032;29;20123;-84
2022/03/25 12:14:15;;;;;;;16.33;4.55;;;;;;;;;;4914556;29;20135;-85
2022/03/25 12:16:48;;;;;;;9.60;4.35;;;;;;;;;;4917052;29;20108;-85
2022/03/25 12:19:26;;;;;;;7.03;3.95;;;;;;;;;;4916876;29;20086;-85
2022/03/25 12:22:03;;;;;;;6.22;3.50;;;;;;;;;;4916521;29;20150;-85
2022/03/25 12:24:31;;;;;;;6.20;3.50;;;;;;;;;;4902765;29;20956;-85
2022/03/25 12:27:00;;;;;;;5.63;3.15;;;;;;;;;;4899477;29;20068;-85
2022/03/25 12:29:32;;;;;;;8.40;3.72;;;;;;;;;;4899945;29;20059;-85
2022/03/25 12:32:07;;;;;;;3.03;2.40;;;;;;;;;;4913710;29;20135;-85
2022/03/25 12:34:41;;;;;;;7.47;2.65;;;;;;;;;;4913305;29;20123;-85
2022/03/25 12:37:10;;;;;;;7.05;3.17;;;;;;;;;;4914949;29;20079;-85
2022/03/25 12:39:37;;;;;;;5.70;2.88;;;;;;;;;;4916340;29;20153;-85
2022/03/25 12:42:13;;;;;;;7.22;2.97;;;;;;;;;;4896275;29;20131;-85
2022/03/25 12:44:53;;;;;;;8.25;2.60;;;;;;;;;;4902133;29;20079;-85
2022/03/25 12:47:32;;;;;;;9.65;2.80;;;;;;;;;;4916670;29;20060;-85
2022/03/25 12:50:08;;;;;;;7.18;2.58;;;;;;;;;;4899685;29;20135;-85
2022/03/25 12:52:42;;;;;;;8.48;3.00;;;;;;;;;;4900125;29;20059;-85
2022/03/25 12:55:15;;;;;;;8.13;2.53;;;;;;;;;;4911845;29;20178;-85
2022/03/25 12:57:42;;;;;;;4.50;2.10;;;;;;;;;;4897447;29;20048;-85
2022/03/25 13:00:10;;;;;;;6.07;2.53;;;;;;;;;;4899507;29;20162;-85
2022/03/25 13:02:46;;;;;;;5.13;2.22;;;;;;;;;;4915022;29;20084;-86
2022/03/25 13:05:16;;;;;;;5.05;2.28;;;;;;;;;;4914101;29;20103;-85
2022/03/25 13:07:44;;;;;;;7.35;2.22;;;;;;;;;;4890690;29;20139;-84
2022/03/25 13:10:11;;;;;;;6.68;2.20;;;;;;;;;;4893779;29;20226;-85
2022/03/25 13:12:39;;;;;;;7.03;2.53;;;;;;;;;;4892531;29;20083;-86
2022/03/25 13:15:06;;;;;;;5.03;2.45;;;;;;;;;;4913914;29;20142;-85
2022/03/25 13:17:33;;;;;;;;;;;;;;;;;;4914586;29;20112;-85
2022/03/25 13:20:00;;;;;;;6.13;1.63;;;;;;;;;;4893804;29;19965;-86
2022/03/25 13:22:28;;;;;;;6.22;2.28;;;;;;;;;;4909212;29;20142;-86
2022/03/25 13:24:55;;;;;;;6.00;2.20;;;;;;;;;;4902788;29;20135;-85
2022/03/25 13:27:22;;;;;;;5.97;1.98;;;;;;;;;;4893916;29;20135;-85
2022/03/25 13:29:52;;;;;;;3.42;1.90;;;;;;;;;;4892910;29;20140;-86
2022/03/25 13:32:48;;;;;;;7.00;2.03;;;;;;;;;;4907100;29;20075;-85
2022/03/25 13:35:21;;;;;;;4.38;1.75;;;;;;;;;;4880778;29;20777;-86
2022/03/25 13:37:57;;;;;;;8.07;2.10;;;;;;;;;;4906482;29;20071;-86
2022/03/25 13:40:28;;;;;;;7.25;2.20;;;;;;;;;;4905527;29;20568;-85
2022/03/25 13:42:55;;;;;;;3.72;1.75;;;;;;;;;;4913613;29;20497;-85
2022/03/25 13:45:22;;;;;;;4.10;1.67;;;;;;;;;;4915007;29;20139;-85
2022/03/25 13:48:01;;;;;;;5.85;1.70;;;;;;;;;;4889934;29;20058;-85
2022/03/25 13:50:28;;;;;;;3.88;2.00;;;;;;;;;;4913607;29;20056;-85
2022/03/25 13:53:09;;;;;;;6.07;2.22;;;;;;;;;;4904398;29;20123;-85
2022/03/25 13:55:39;;;;;;;6.28;2.30;;;;;;;;;;4898260;29;20063;-85
2022/03/25 13:58:31;;;;;;;6.60;1.95;;;;;;;;;;4898994;29;20059;-85
2022/03/25 14:00:58;;;;;;;5.80;2.10;;;;;;;;;;4895968;29;20119;-85
2022/03/25 14:03:25;;;;;;;;;;;;;;;;;;4897510;29;20048;-86
2022/03/25 14:05:52;;;;;;;3.63;1.80;;;;;;;;;;4913392;29;19923;-86
2022/03/25 14:08:31;;;;;;;4.65;1.83;;;;;;;;;;4897960;29;20564;-84
2022/03/25 14:10:59;;;;;;;4.50;1.83;;;;;;;;;;4912060;29;20142;-85
2022/03/25 14:13:26;;;;;;;8.20;2.20;;;;;;;;;;4897765;29;20067;-85
2022/03/25 14:15:52;;;;;;;4.63;1.90;;;;;;;;;;4898109;29;20067;-86
2022/03/25 14:18:47;;;;;;;5.47;1.90;;;;;;;;;;4899416;29;20056;-86
2022/03/25 14:21:21;;;;;;;4.57;1.75;;;;;;;;;;4897802;29;20131;-86
2022/03/25 14:26:41;;;;;;;4.88;2.13;;;;;;;;;;4914256;29;20080;-86
2022/03/25 14:29:15;;;;;;;3.53;2.05;;;;;;;;;;4897150;29;20076;-85
2022/03/25 14:31:43;;;;;;;7.87;2.03;;;;;;;;;;4893989;29;20143;-86
2022/03/25 14:34:09;;;;;;;4.93;2.00;;;;;;;;;;4913814;29;20059;-86
2022/03/25 14:36:50;;;;;;;6.38;2.08;;;;;;;;;;4913643;29;20102;-85